Time;durP1;ratioP1;P1;durP2;ratioP2;P2;SDS_P1;SDS_P2;PMS_P1;PMS_P2;Temp;Humidity;BMP_temperature;BMP_pressure;BME280_temperature;BME280_humidity;BME280_pressure;Samples;Min_cycle;Max_cycle;Signal;HPM_P1;HPM_P2
2022/07/16 00:01:47;;;;;;;6.03;2.75;;;19.40;99.90;;;;;;5056697;28;20251;-86
2022/07/16 00:04:15;;;;;;;5.78;2.88;;;19.40;99.90;;;;;;5056923;28;20590;-88
2022/07/16 00:06:43;;;;;;;6.13;2.58;;;19.30;99.90;;;;;;5056202;28;20194;-89
2022/07/16 00:09:10;;;;;;;6.28;2.95;;;19.40;99.90;;;;;;5055650;28;20283;-88
2022/07/16 00:11:37;;;;;;;7.90;2.50;;;19.30;99.90;;;;;;5056756;28;20224;-89
2022/07/16 00:14:04;;;;;;;7.70;2.60;;;19.30;99.90;;;;;;5054780;28;20193;-88
2022/07/16 00:16:31;;;;;;;7.57;2.60;;;19.30;99.90;;;;;;5056156;28;20198;-89
2022/07/16 00:21:46;;;;;;;4.60;2.30;;;19.30;99.90;;;;;;5037891;28;20197;-90
2022/07/16 00:24:13;;;;;;;5.45;2.40;;;19.30;99.90;;;;;;5051717;28;20202;-86
2022/07/16 00:26:40;;;;;;;4.72;2.20;;;19.30;99.90;;;;;;5056917;28;20204;-90
2022/07/16 00:29:07;;;;;;;8.88;2.55;;;19.20;99.90;;;;;;5056156;28;20205;-88
2022/07/16 00:31:34;;;;;;;7.95;2.65;;;19.10;99.90;;;;;;5049467;28;20224;-88
2022/07/16 00:34:01;;;;;;;4.88;2.50;;;19.10;99.90;;;;;;5036171;28;20541;-88
2022/07/16 00:36:28;;;;;;;4.35;2.20;;;19.20;99.90;;;;;;5035976;28;20285;-86
2022/07/16 00:38:56;;;;;;;7.03;2.70;;;19.10;99.90;;;;;;5035526;28;20205;-88
2022/07/16 00:41:23;;;;;;;5.63;2.42;;;19.10;99.90;;;;;;5035586;28;20317;-87
2022/07/16 00:43:52;;;;;;;3.92;2.00;;;19.00;99.90;;;;;;5035517;28;20729;-89
2022/07/16 00:46:19;;;;;;;5.68;1.95;;;18.90;99.90;;;;;;5047729;28;20297;-90
2022/07/16 00:48:47;;;;;;;4.70;1.80;;;18.90;99.90;;;;;;5055104;28;20281;-89
2022/07/16 00:51:16;;;;;;;5.22;1.73;;;18.80;99.90;;;;;;5055533;28;20304;-87
2022/07/16 00:53:43;;;;;;;3.95;1.75;;;18.80;99.90;;;;;;5053396;28;20240;-85
2022/07/16 00:56:13;;;;;;;6.45;1.70;;;18.70;99.90;;;;;;5034191;28;20206;-88
2022/07/16 00:58:42;;;;;;;4.97;1.83;;;18.70;99.90;;;;;;5045729;28;20206;-87
2022/07/16 01:01:12;;;;;;;8.13;2.25;;;18.60;99.90;;;;;;5055225;28;20630;-86
2022/07/16 01:03:41;;;;;;;6.28;1.83;;;18.60;99.90;;;;;;5052480;28;20289;-88
2022/07/16 01:06:09;;;;;;;3.03;1.58;;;18.50;99.90;;;;;;5052240;28;20678;-90
2022/07/16 01:08:38;;;;;;;3.72;1.63;;;18.50;99.90;;;;;;5048405;28;20293;-86
2022/07/16 01:11:07;;;;;;;2.63;1.60;;;18.40;99.90;;;;;;5034714;28;20518;-88
2022/07/16 01:13:38;;;;;;;3.15;1.50;;;18.40;99.90;;;;;;5034843;28;20290;-87
2022/07/16 01:16:06;;;;;;;4.75;1.90;;;18.30;99.90;;;;;;5041897;28;20213;-89
2022/07/16 01:18:33;;;;;;;6.90;2.08;;;18.20;99.90;;;;;;5048349;28;20212;-88
2022/07/16 01:21:00;;;;;;;6.07;1.73;;;18.20;99.90;;;;;;5044604;28;20217;-89
2022/07/16 01:23:29;;;;;;;5.50;1.83;;;18.10;99.90;;;;;;5053250;28;20240;-89
2022/07/16 01:25:56;;;;;;;6.25;1.77;;;18.10;99.90;;;;;;5053931;28;20198;-90
2022/07/16 01:28:24;;;;;;;4.53;1.83;;;18.10;99.90;;;;;;5054720;28;20208;-89
2022/07/16 01:30:51;;;;;;;6.15;1.92;;;18.10;99.90;;;;;;5053844;28;20309;-88
2022/07/16 01:33:22;;;;;;;5.93;2.08;;;18.00;99.90;;;;;;5054913;28;20208;-89
2022/07/16 01:35:50;;;;;;;4.38;2.10;;;18.10;99.90;;;;;;5053996;28;20212;-89
2022/07/16 01:38:17;;;;;;;4.32;1.85;;;18.00;99.90;;;;;;5055213;28;20290;-89
2022/07/16 01:40:46;;;;;;;4.78;1.88;;;18.00;99.90;;;;;;5054771;28;20245;-85
2022/07/16 01:43:14;;;;;;;5.05;2.28;;;17.90;99.90;;;;;;5055131;28;20224;-89
2022/07/16 01:45:41;;;;;;;4.78;2.40;;;17.90;99.90;;;;;;5054403;28;20276;-88
2022/07/16 01:48:08;;;;;;;5.55;2.28;;;17.90;99.90;;;;;;5055143;28;20209;-89
2022/07/16 01:50:36;;;;;;;4.03;2.00;;;17.80;99.90;;;;;;5054910;28;20228;-96
2022/07/16 01:53:03;;;;;;;4.63;2.17;;;17.80;99.90;;;;;;5054272;28;20209;-90
2022/07/16 01:55:30;;;;;;;6.55;2.10;;;17.80;99.90;;;;;;5054200;28;20210;-88
2022/07/16 01:57:59;;;;;;;6.60;2.17;;;17.80;99.90;;;;;;5054314;28;20209;-89
2022/07/16 02:00:26;;;;;;;6.25;2.47;;;17.80;99.90;;;;;;5055099;28;20194;-88
2022/07/16 02:02:53;;;;;;;3.78;1.80;;;17.80;99.90;;;;;;5055260;28;20198;-90
2022/07/16 02:05:20;;;;;;;5.65;2.13;;;17.80;99.90;;;;;;5054734;28;20204;-89
2022/07/16 02:07:47;;;;;;;7.90;2.55;;;17.80;99.90;;;;;;5053543;28;20289;-87
2022/07/16 02:10:14;;;;;;;4.72;2.10;;;17.80;99.90;;;;;;5054090;28;20198;-85
2022/07/16 02:12:41;;;;;;;3.95;1.90;;;17.80;99.90;;;;;;5053895;28;20198;-87
2022/07/16 02:15:11;;;;;;;4.72;2.00;;;17.90;99.90;;;;;;5033574;28;20595;-89
2022/07/16 02:17:38;;;;;;;4.30;2.03;;;17.90;99.90;;;;;;5034391;28;20737;-89
2022/07/16 02:20:07;;;;;;;2.55;1.60;;;17.90;99.90;;;;;;5033932;28;20203;-87
2022/07/16 02:22:34;;;;;;;3.08;1.40;;;17.80;99.90;;;;;;5034026;28;20203;-87
2022/07/16 02:25:01;;;;;;;4.82;1.60;;;17.80;99.90;;;;;;5034107;28;20487;-88
2022/07/16 02:27:28;;;;;;;4.93;1.30;;;17.70;99.90;;;;;;5033832;28;20281;-89
2022/07/16 02:29:55;;;;;;;4.57;1.15;;;17.80;99.90;;;;;;5035546;28;20288;-88
2022/07/16 02:32:23;;;;;;;2.63;1.15;;;17.70;99.90;;;;;;5052819;28;20229;-87
2022/07/16 02:34:50;;;;;;;1.85;1.15;;;17.70;99.90;;;;;;5052939;28;20498;-86
2022/07/16 02:37:17;;;;;;;5.82;1.30;;;17.70;99.90;;;;;;5054182;28;20496;-88
2022/07/16 02:39:44;;;;;;;3.97;1.23;;;17.70;99.90;;;;;;5056716;28;20285;-88
2022/07/16 02:42:11;;;;;;;3.30;0.93;;;17.70;99.90;;;;;;5057555;28;20264;-88
2022/07/16 02:44:38;;;;;;;1.65;1.23;;;17.70;99.90;;;;;;5057627;28;20198;-86
2022/07/16 02:47:05;;;;;;;3.50;1.35;;;17.70;99.90;;;;;;5057781;28;20247;-85
2022/07/16 02:49:33;;;;;;;2.92;1.00;;;17.70;99.90;;;;;;5056787;28;20202;-88
2022/07/16 02:52:00;;;;;;;2.17;0.98;;;17.70;99.90;;;;;;5056856;28;20637;-89
2022/07/16 02:54:27;;;;;;;3.92;1.60;;;17.70;99.90;;;;;;5057690;28;20225;-89
2022/07/16 02:56:54;;;;;;;3.92;1.40;;;17.70;99.90;;;;;;5057294;28;20343;-90
2022/07/16 02:59:21;;;;;;;4.05;1.05;;;17.70;99.90;;;;;;5057445;28;20831;-90
2022/07/16 03:01:47;;;;;;;2.95;1.10;;;17.60;99.90;;;;;;5057260;28;20225;-88
2022/07/16 03:04:14;;;;;;;3.70;1.50;;;17.60;99.90;;;;;;5054115;28;20305;-88
2022/07/16 03:06:42;;;;;;;3.30;1.15;;;17.60;99.90;;;;;;5037322;28;20211;-86
2022/07/16 03:09:09;;;;;;;3.50;1.45;;;17.60;99.90;;;;;;5037222;28;20213;-87
2022/07/16 03:11:36;;;;;;;3.78;1.20;;;17.60;99.90;;;;;;5037454;28;20505;-89
2022/07/16 03:14:03;;;;;;;3.22;1.20;;;17.70;99.90;;;;;;5037274;28;20567;-89
2022/07/16 03:16:30;;;;;;;6.07;1.30;;;17.70;99.90;;;;;;5037400;28;20277;-88
2022/07/16 03:18:57;;;;;;;3.35;1.20;;;17.60;99.90;;;;;;5045581;28;20293;-85
2022/07/16 03:21:24;;;;;;;4.78;1.65;;;17.50;99.90;;;;;;5057235;28;20201;-84
2022/07/16 03:23:52;;;;;;;2.80;1.45;;;17.40;99.90;;;;;;5057184;28;20209;-86
2022/07/16 03:26:19;;;;;;;3.33;1.80;;;17.40;99.90;;;;;;5056387;28;20212;-87
2022/07/16 03:28:46;;;;;;;5.20;1.58;;;17.40;99.90;;;;;;5056860;28;20202;-87
2022/07/16 03:31:13;;;;;;;5.15;1.48;;;17.30;99.90;;;;;;5056873;28;20308;-88
2022/07/16 03:33:40;;;;;;;3.53;1.88;;;17.30;99.90;;;;;;5056800;28;20202;-86
2022/07/16 03:36:07;;;;;;;5.25;1.55;;;17.20;99.90;;;;;;5056609;28;20210;-87
2022/07/16 03:41:19;;;;;;;3.38;1.60;;;17.20;99.90;;;;;;5040709;28;20261;-88
2022/07/16 03:43:46;;;;;;;5.60;1.55;;;17.10;99.90;;;;;;5037112;28;20497;-88
2022/07/16 03:46:13;;;;;;;3.90;1.65;;;17.10;99.90;;;;;;5049273;28;20285;-87
2022/07/16 03:48:40;;;;;;;3.25;1.80;;;17.00;99.90;;;;;;5056126;28;20200;-87
2022/07/16 03:51:07;;;;;;;3.03;1.85;;;16.90;99.90;;;;;;5057111;28;20308;-88
2022/07/16 03:53:34;;;;;;;5.80;1.80;;;16.90;99.90;;;;;;5056749;28;20567;-89
2022/07/16 03:56:01;;;;;;;3.33;1.40;;;16.80;99.90;;;;;;5056671;28;20210;-87
2022/07/16 03:58:30;;;;;;;4.30;1.60;;;16.80;99.90;;;;;;5056258;28;20280;-85
2022/07/16 04:00:57;;;;;;;5.40;1.77;;;16.80;99.90;;;;;;5053744;28;20479;-86
2022/07/16 04:03:24;;;;;;;5.80;1.35;;;16.70;99.90;;;;;;5055967;28;20208;-88
2022/07/16 04:05:52;;;;;;;3.53;1.45;;;16.70;99.90;;;;;;5055330;28;20280;-87
2022/07/16 04:08:19;;;;;;;3.67;1.75;;;16.70;99.90;;;;;;5056058;28;20298;-87
2022/07/16 04:10:46;;;;;;;4.13;1.42;;;16.70;99.90;;;;;;5055650;28;20198;-86
2022/07/16 04:13:13;;;;;;;2.38;1.63;;;16.60;99.90;;;;;;5053981;28;20284;-84
2022/07/16 04:15:42;;;;;;;4.97;2.03;;;16.60;99.90;;;;;;5056108;28;20281;-89
2022/07/16 04:18:09;;;;;;;4.93;1.90;;;16.60;99.90;;;;;;5055755;28;20509;-87
2022/07/16 04:20:36;;;;;;;5.30;1.88;;;16.60;99.90;;;;;;5056147;28;20261;-86
2022/07/16 04:23:03;;;;;;;4.05;1.52;;;16.50;99.90;;;;;;5056329;28;20222;-85
2022/07/16 04:25:30;;;;;;;3.35;1.50;;;16.50;99.90;;;;;;5055611;28;20205;-87
2022/07/16 04:27:57;;;;;;;5.70;1.60;;;16.50;99.90;;;;;;5055907;28;20197;-86
2022/07/16 04:30:24;;;;;;;2.95;1.70;;;16.50;99.90;;;;;;5056674;28;20198;-87
2022/07/16 04:32:52;;;;;;;3.42;1.80;;;16.50;99.90;;;;;;5055384;28;20319;-87
2022/07/16 04:35:19;;;;;;;5.38;2.38;;;16.50;99.90;;;;;;5055683;28;20217;-87
2022/07/16 04:37:46;;;;;;;5.88;1.85;;;16.50;99.90;;;;;;5056270;28;20197;-88
2022/07/16 04:40:14;;;;;;;4.60;1.67;;;16.50;99.90;;;;;;5054657;28;20241;-89
2022/07/16 04:42:41;;;;;;;4.78;1.67;;;16.60;99.90;;;;;;5058887;28;20245;-87
2022/07/16 04:45:10;;;;;;;6.07;1.90;;;16.60;99.90;;;;;;5056417;28;20194;-88
2022/07/16 04:47:37;;;;;;;6.63;2.00;;;16.60;99.90;;;;;;5056708;28;20198;-87
2022/07/16 04:50:07;;;;;;;5.75;1.98;;;16.60;99.90;;;;;;5061573;28;20251;-88
2022/07/16 04:52:34;;;;;;;6.15;1.45;;;16.60;99.90;;;;;;5064925;28;20581;-87
2022/07/16 04:55:01;;;;;;;3.65;1.52;;;16.60;99.90;;;;;;5063050;28;20284;-86
2022/07/16 04:57:28;;;;;;;4.38;1.85;;;16.60;99.90;;;;;;5057884;28;20193;-84
2022/07/16 04:59:56;;;;;;;4.88;1.33;;;16.60;99.90;;;;;;5057904;28;20209;-85
2022/07/16 05:05:09;;;;;;;4.20;1.50;;;16.70;99.90;;;;;;5057621;28;20216;-87
2022/07/16 05:07:37;;;;;;;5.38;1.35;;;16.70;99.90;;;;;;5055010;28;20220;-88
2022/07/16 05:10:05;;;;;;;7.85;1.77;;;16.70;99.90;;;;;;5055307;28;20217;-83
2022/07/16 05:12:32;;;;;;;4.43;1.15;;;16.70;99.90;;;;;;5054830;28;20606;-84
2022/07/16 05:14:59;;;;;;;2.60;1.10;;;16.80;99.90;;;;;;5053390;28;20216;-86
2022/07/16 05:17:26;;;;;;;4.20;1.23;;;16.80;99.90;;;;;;5053937;28;20528;-88
2022/07/16 05:19:53;;;;;;;5.63;1.40;;;16.80;99.90;;;;;;5055048;28;20289;-85
2022/07/16 05:22:21;;;;;;;3.78;1.25;;;16.90;99.90;;;;;;5054618;28;20667;-86
2022/07/16 05:24:48;;;;;;;6.35;1.33;;;16.90;99.90;;;;;;5054650;28;20192;-86
2022/07/16 05:27:15;;;;;;;3.50;1.40;;;16.90;99.90;;;;;;5054465;28;20200;-84
2022/07/16 05:29:42;;;;;;;5.05;1.33;;;17.10;99.90;;;;;;5053936;28;20202;-88
2022/07/16 05:32:09;;;;;;;5.30;1.45;;;17.20;99.90;;;;;;5034636;28;20223;-88
2022/07/16 05:34:36;;;;;;;4.80;1.40;;;17.20;99.90;;;;;;5034539;28;20535;-86
2022/07/16 05:37:03;;;;;;;6.32;1.70;;;17.30;99.90;;;;;;5049496;28;20220;-86
2022/07/16 05:39:31;;;;;;;5.35;1.50;;;17.40;99.90;;;;;;5054337;28;20208;-86
2022/07/16 05:41:58;;;;;;;3.85;1.23;;;17.60;99.90;;;;;;5054432;28;20221;-84
2022/07/16 05:44:25;;;;;;;4.03;1.25;;;17.70;99.90;;;;;;5053479;28;20294;-86
2022/07/16 05:46:52;;;;;;;3.53;1.10;;;17.90;84.60;;;;;;5035600;28;20568;-87
2022/07/16 05:49:19;;;;;;;3.42;1.30;;;18.00;65.90;;;;;;5034667;28;20610;-86
2022/07/16 05:51:46;;;;;;;3.22;1.00;;;18.20;40.80;;;;;;5050261;28;20310;-84
2022/07/16 05:54:13;;;;;;;2.85;1.10;;;18.40;1.00;;;;;;5042225;28;20285;-85
2022/07/16 05:56:42;;;;;;;5.10;1.50;;;18.60;1.00;;;;;;5034540;28;20273;-87
2022/07/16 05:59:09;;;;;;;5.22;1.30;;;18.70;1.00;;;;;;5033965;28;20599;-87
2022/07/16 06:01:36;;;;;;;2.83;1.10;;;19.00;1.00;;;;;;5041713;28;20223;-88
2022/07/16 06:04:03;;;;;;;3.28;1.10;;;19.20;1.00;;;;;;5039378;28;20205;-89
2022/07/16 06:06:30;;;;;;;3.20;1.15;;;19.40;1.00;;;;;;5041801;28;20202;-85
2022/07/16 06:08:56;;;;;;;2.40;1.10;;;19.60;1.00;;;;;;5055450;28;20305;-90
2022/07/16 06:11:23;;;;;;;3.92;1.10;;;19.80;1.00;;;;;;5054344;28;20383;-87
2022/07/16 06:13:52;;;;;;;3.67;1.42;;;20.00;1.00;;;;;;5058636;28;20202;-87
2022/07/16 06:16:19;;;;;;;4.32;1.40;;;20.20;1.00;;;;;;5057699;28;20202;-86
2022/07/16 06:18:46;;;;;;;4.13;1.30;;;20.40;1.00;;;;;;5058533;28;20292;-85
2022/07/16 06:21:13;;;;;;;4.18;1.05;;;20.60;99.90;;;;;;5058409;28;20552;-89
2022/07/16 06:23:40;;;;;;;3.95;1.27;;;20.70;99.90;;;;;;5058654;28;20479;-87
2022/07/16 06:26:07;;;;;;;3.75;1.30;;;21.00;1.00;;;;;;5052538;28;20281;-87
2022/07/16 06:28:33;;;;;;;5.53;1.58;;;21.20;1.00;;;;;;5038230;28;20289;-90
2022/07/16 06:31:02;;;;;;;2.00;0.88;;;21.50;1.00;;;;;;5038401;28;20605;-88
2022/07/16 06:33:29;;;;;;;4.35;1.13;;;21.60;7.20;;;;;;5037774;28;20317;-90
2022/07/16 06:35:56;;;;;;;2.67;1.10;;;21.60;1.00;;;;;;5038094;28;20694;-88
2022/07/16 06:38:23;;;;;;;8.95;1.20;;;21.60;99.90;;;;;;5037835;28;20221;-88
2022/07/16 06:40:50;;;;;;;3.50;1.17;;;21.60;1.00;;;;;;5037750;28;20643;-85
2022/07/16 06:43:17;;;;;;;4.50;1.20;;;21.70;1.00;;;;;;5039041;28;20261;-89
2022/07/16 06:45:44;;;;;;;3.13;1.00;;;21.60;1.00;;;;;;5057982;28;20198;-85
2022/07/16 06:48:13;;;;;;;3.20;1.00;;;21.60;99.90;;;;;;5057118;28;20224;-91
2022/07/16 06:50:40;;;;;;;3.83;1.00;;;21.70;1.00;;;;;;5056953;28;20202;-88
2022/07/16 06:53:07;;;;;;;4.68;1.15;;;21.70;99.90;;;;;;5056860;28;20221;-88
2022/07/16 06:55:36;;;;;;;2.17;0.98;;;22.00;1.00;;;;;;5053857;28;20510;-86
2022/07/16 06:58:03;;;;;;;5.72;1.40;;;22.20;1.00;;;;;;5038214;28;20264;-87
2022/07/16 07:00:30;;;;;;;2.78;0.90;;;22.40;99.90;;;;;;5047127;28;20210;-85
2022/07/16 07:02:57;;;;;;;2.70;0.90;;;22.50;1.00;;;;;;5047613;28;20384;-89
2022/07/16 07:05:25;;;;;;;2.45;0.90;;;22.60;1.00;;;;;;5045069;28;20210;-89
2022/07/16 07:07:52;;;;;;;2.78;1.13;;;22.70;1.00;;;;;;5043164;28;20206;-89
2022/07/16 07:10:20;;;;;;;4.60;1.00;;;22.90;1.00;;;;;;5037957;28;20519;-86
2022/07/16 07:12:47;;;;;;;5.03;1.10;;;22.90;1.00;;;;;;5050262;28;20236;-89
2022/07/16 07:15:13;;;;;;;2.72;1.10;;;23.20;1.00;;;;;;5056792;28;20202;-89
2022/07/16 07:17:40;;;;;;;3.08;1.25;;;23.50;1.00;;;;;;5056998;28;20228;-87
2022/07/16 07:20:08;;;;;;;3.95;1.00;;;23.80;99.90;;;;;;5056896;28;20205;-89
2022/07/16 07:22:36;;;;;;;1.80;0.90;;;23.90;1.00;;;;;;5056808;28;20202;-89
2022/07/16 07:25:04;;;;;;;2.33;0.80;;;24.00;1.00;;;;;;5041252;28;20203;-87
2022/07/16 07:27:31;;;;;;;2.97;1.13;;;24.10;1.00;;;;;;5036673;28;20209;-87
2022/07/16 07:29:58;;;;;;;4.70;1.27;;;24.00;1.00;;;;;;5036789;28;20209;-85
2022/07/16 07:32:24;;;;;;;2.05;1.02;;;24.10;1.00;;;;;;5034022;28;20222;-89
2022/07/16 07:34:58;;;;;;;1.92;1.10;;;24.10;1.00;;;;;;5054386;28;20260;-88
2022/07/16 07:37:25;;;;;;;1.85;0.90;;;23.90;1.00;;;;;;5055406;28;20206;-90
2022/07/16 07:39:53;;;;;;;5.72;1.13;;;24.00;1.00;;;;;;5056347;28;20613;-88
2022/07/16 07:42:20;;;;;;;3.85;0.93;;;24.30;1.00;;;;;;5055564;28;20229;-88
2022/07/16 07:44:47;;;;;;;2.13;1.00;;;24.50;1.00;;;;;;5056267;28;20211;-88
2022/07/16 07:47:14;;;;;;;10.82;1.75;;;24.80;1.00;;;;;;5056576;28;20546;-85
2022/07/16 07:49:41;;;;;;;3.47;1.10;;;24.90;1.00;;;;;;5056400;28;20205;-87
2022/07/16 07:52:08;;;;;;;5.97;1.35;;;25.00;1.00;;;;;;5055944;28;20206;-91
2022/07/16 07:54:35;;;;;;;3.17;1.27;;;25.10;1.00;;;;;;5056130;28;20285;-85
2022/07/16 07:57:03;;;;;;;3.30;1.13;;;24.90;1.00;;;;;;5055875;28;20292;-86
2022/07/16 07:59:30;;;;;;;4.07;1.13;;;24.60;1.00;;;;;;5055241;28;20208;-85
2022/07/16 08:01:57;;;;;;;3.65;1.10;;;24.50;1.00;;;;;;5056357;28;20649;-86
2022/07/16 08:04:24;;;;;;;3.13;0.90;;;24.60;1.00;;;;;;5055295;28;20202;-87
2022/07/16 08:06:50;;;;;;;5.25;1.13;;;24.70;1.00;;;;;;5054053;28;20206;-85
2022/07/16 08:09:18;;;;;;;2.67;1.00;;;24.90;1.00;;;;;;5054879;28;20648;-88
2022/07/16 08:11:45;;;;;;;3.17;1.00;;;25.10;99.90;;;;;;5054143;28;20240;-91
2022/07/16 08:14:13;;;;;;;2.63;0.80;;;25.20;99.90;;;;;;5054078;28;20229;-88
2022/07/16 08:16:40;;;;;;;4.32;1.00;;;25.50;99.90;;;;;;5054840;28;20537;-86
2022/07/16 08:19:07;;;;;;;1.98;1.00;;;25.30;99.90;;;;;;5053663;28;20213;-90
2022/07/16 08:21:34;;;;;;;3.88;1.10;;;25.40;99.90;;;;;;5055362;28;20278;-87
2022/07/16 08:26:46;;;;;;;2.25;1.00;;;25.70;99.90;;;;;;5054500;28;20240;-90
2022/07/16 08:29:14;;;;;;;2.85;0.85;;;26.00;99.90;;;;;;5035599;28;20282;-87
2022/07/16 08:31:41;;;;;;;3.40;1.05;;;25.80;99.90;;;;;;5035910;28;20666;-90
2022/07/16 08:34:08;;;;;;;4.60;1.10;;;25.80;99.90;;;;;;5042941;28;20222;-86
2022/07/16 08:36:36;;;;;;;3.53;1.30;;;26.10;99.90;;;;;;5042660;28;20208;-89
2022/07/16 08:39:03;;;;;;;4.10;1.23;;;26.10;99.90;;;;;;5055562;28;20255;-85
2022/07/16 08:41:32;;;;;;;1.27;0.80;;;25.90;99.90;;;;;;5056979;28;20320;-87
2022/07/16 08:43:59;;;;;;;6.47;1.15;;;25.80;99.90;;;;;;5056867;28;20222;-88
2022/07/16 08:46:30;;;;;;;4.70;1.10;;;25.60;99.90;;;;;;5057774;28;20198;-90
2022/07/16 08:48:57;;;;;;;1.73;0.80;;;25.50;99.90;;;;;;5056497;28;20228;-88
2022/07/16 08:51:36;;;;;;;2.85;1.02;;;25.50;99.90;;;;;;5036394;28;20575;-86
2022/07/16 08:54:10;;;;;;;4.85;1.35;;;25.70;99.90;;;;;;5034600;28;20229;-89
2022/07/16 08:56:37;;;;;;;4.93;1.00;;;25.80;99.90;;;;;;5034665;28;20209;-88
2022/07/16 08:59:06;;;;;;;3.35;0.70;;;26.00;99.90;;;;;;5050683;28;20198;-87
2022/07/16 09:01:35;;;;;;;4.63;0.90;;;26.20;99.90;;;;;;5054791;28;20598;-88
2022/07/16 09:04:03;;;;;;;3.10;1.02;;;26.30;99.90;;;;;;5045048;28;20673;-88
2022/07/16 09:06:31;;;;;;;4.75;1.10;;;26.10;99.90;;;;;;5043954;28;20277;-89
2022/07/16 09:09:01;;;;;;;2.20;1.00;;;25.80;99.90;;;;;;5054401;28;20210;-85
2022/07/16 09:11:30;;;;;;;3.88;1.15;;;25.40;99.90;;;;;;5054438;28;20221;-91
2022/07/16 09:14:02;;;;;;;2.70;0.90;;;25.30;99.90;;;;;;5053157;28;20520;-90
2022/07/16 09:16:30;;;;;;;3.85;1.60;;;25.60;99.90;;;;;;5053767;28;20213;-89
2022/07/16 09:19:10;;;;;;;3.63;1.17;;;25.30;99.90;;;;;;5055437;28;20514;-86
2022/07/16 09:21:58;;;;;;;3.10;0.80;;;25.40;99.90;;;;;;5055529;28;20590;-90
2022/07/16 09:24:35;;;;;;;3.28;1.08;;;25.50;99.90;;;;;;5039954;28;20620;-89
2022/07/16 09:27:04;;;;;;;5.53;1.20;;;25.40;99.90;;;;;;5034887;28;20594;-89
2022/07/16 09:29:34;;;;;;;4.10;0.98;;;25.10;99.90;;;;;;5035314;28;20202;-89
2022/07/16 09:32:01;;;;;;;3.28;1.05;;;25.10;99.90;;;;;;5034503;28;20221;-88
2022/07/16 09:34:30;;;;;;;3.15;0.95;;;24.90;99.90;;;;;;5054419;28;20404;-88
2022/07/16 09:36:58;;;;;;;3.00;1.02;;;24.90;99.90;;;;;;5054764;28;20603;-91
2022/07/16 09:39:25;;;;;;;2.88;1.17;;;25.00;99.90;;;;;;5054986;28;20289;-88
2022/07/16 09:41:52;;;;;;;5.25;1.10;;;24.90;99.90;;;;;;5053452;28;20339;-90
2022/07/16 09:44:20;;;;;;;2.65;1.10;;;25.00;99.90;;;;;;5053913;28;20497;-88
2022/07/16 09:47:06;;;;;;;4.93;1.00;;;25.10;99.90;;;;;;5051798;28;20276;-87
2022/07/16 09:49:36;;;;;;;2.75;1.27;;;25.10;99.90;;;;;;5045278;28;20209;-88
2022/07/16 09:52:03;;;;;;;6.70;1.48;;;25.40;99.90;;;;;;5034654;28;20269;-89
2022/07/16 09:54:33;;;;;;;3.83;1.10;;;25.40;99.90;;;;;;5049322;28;20258;-92
2022/07/16 09:57:09;;;;;;;2.60;0.75;;;25.30;99.90;;;;;;5054646;28;20190;-88
2022/07/16 09:59:37;;;;;;;4.03;1.25;;;25.20;99.90;;;;;;5049777;28;20537;-89
2022/07/16 10:02:04;;;;;;;4.18;1.17;;;25.50;99.90;;;;;;5047574;28;20692;-90
2022/07/16 10:04:32;;;;;;;3.60;1.15;;;25.40;99.90;;;;;;5041349;28;20617;-93
2022/07/16 10:07:00;;;;;;;3.72;1.00;;;25.50;99.90;;;;;;5034971;28;20289;-91
2022/07/16 10:09:28;;;;;;;3.35;1.23;;;25.60;99.90;;;;;;5044405;28;20221;-90
2022/07/16 10:11:57;;;;;;;3.40;1.45;;;25.50;99.90;;;;;;5053709;28;20624;-93
2022/07/16 10:14:25;;;;;;;3.85;1.15;;;25.50;99.90;;;;;;5039383;28;20611;-84
2022/07/16 10:16:59;;;;;;;3.85;1.30;;;25.30;99.90;;;;;;5052657;28;20241;-86
2022/07/16 10:19:36;;;;;;;4.40;1.67;;;25.00;99.90;;;;;;5054220;28;20198;-88
2022/07/16 10:22:32;;;;;;;4.03;1.05;;;25.00;99.90;;;;;;5055045;28;20578;-91
2022/07/16 10:25:00;;;;;;;3.85;1.10;;;25.10;99.90;;;;;;5031112;28;20236;-91
2022/07/16 10:27:30;;;;;;;4.97;1.27;;;25.30;99.90;;;;;;5054194;28;20494;-91
2022/07/16 10:30:16;;;;;;;5.28;1.20;;;25.40;99.90;;;;;;5056403;28;20213;-92
2022/07/16 10:33:13;;;;;;;2.25;0.98;;;25.60;99.90;;;;;;5054328;28;20205;-90
2022/07/16 10:35:45;;;;;;;4.13;1.17;;;25.60;99.90;;;;;;5012489;28;20204;-88
2022/07/16 10:38:16;;;;;;;4.10;1.58;;;25.30;99.90;;;;;;5043676;28;20194;-92
2022/07/16 10:40:45;;;;;;;4.88;0.90;;;25.10;99.90;;;;;;5034367;28;20272;-90
2022/07/16 10:43:17;;;;;;;5.68;1.13;;;25.10;99.90;;;;;;5034758;28;20693;-91
2022/07/16 10:45:55;;;;;;;6.90;1.40;;;25.20;99.90;;;;;;5033906;28;20229;-90
2022/07/16 10:48:23;;;;;;;2.92;1.20;;;25.30;99.90;;;;;;5034282;28;20202;-87
2022/07/16 10:51:15;;;;;;;3.70;0.98;;;25.30;99.90;;;;;;5034154;28;20230;-92
2022/07/16 10:54:29;;;;;;;5.40;1.23;;;25.20;99.90;;;;;;5032583;28;20232;-90
2022/07/16 10:56:59;;;;;;;4.22;1.15;;;25.20;99.90;;;;;;5032642;28;20809;-88
2022/07/16 10:59:28;;;;;;;3.15;1.00;;;25.20;99.90;;;;;;5035504;28;20485;-89
2022/07/16 11:01:56;;;;;;;3.85;1.00;;;25.30;99.90;;;;;;5044696;28;20237;-90
2022/07/16 11:04:28;;;;;;;3.55;1.13;;;25.50;99.90;;;;;;5057104;28;20212;-89
2022/07/16 11:06:56;;;;;;;4.95;1.48;;;25.60;99.90;;;;;;5057742;28;20209;-89
2022/07/16 11:09:28;;;;;;;2.28;0.80;;;25.90;99.90;;;;;;5057714;28;20592;-90
2022/07/16 11:12:06;;;;;;;3.00;1.20;;;26.00;99.90;;;;;;5056925;28;20289;-90
2022/07/16 11:14:34;;;;;;;5.40;1.13;;;25.80;99.90;;;;;;5037517;28;20262;-90
2022/07/16 11:17:01;;;;;;;4.82;1.20;;;25.70;99.90;;;;;;5037284;28;20213;-90
2022/07/16 11:19:28;;;;;;;4.60;1.45;;;25.60;99.90;;;;;;5038138;28;20598;-88
2022/07/16 11:21:57;;;;;;;4.15;1.52;;;25.70;99.90;;;;;;5047582;28;20295;-90
2022/07/16 11:24:25;;;;;;;3.30;1.00;;;25.80;99.90;;;;;;5057638;28;20488;-87
2022/07/16 11:26:52;;;;;;;2.88;1.00;;;25.50;99.90;;;;;;5057902;28;20209;-90
2022/07/16 11:29:21;;;;;;;4.40;0.90;;;25.50;99.90;;;;;;5061135;28;20201;-89
2022/07/16 11:31:49;;;;;;;3.80;1.23;;;25.70;99.90;;;;;;5065288;28;20214;-90
2022/07/16 11:34:18;;;;;;;4.07;1.25;;;25.80;99.90;;;;;;5066206;28;20869;-89
2022/07/16 11:36:48;;;;;;;4.35;1.45;;;25.60;99.90;;;;;;5090537;22;20245;-92
2022/07/16 11:39:17;;;;;;;3.92;1.10;;;25.50;99.90;;;;;;5064157;28;20217;-92
2022/07/16 11:41:46;;;;;;;3.30;1.00;;;25.70;99.90;;;;;;5061419;28;20210;-91
2022/07/16 11:44:15;;;;;;;3.15;1.33;;;25.70;99.90;;;;;;5058759;28;20205;-92
2022/07/16 11:46:46;;;;;;;3.58;1.33;;;25.60;99.90;;;;;;5057253;28;20289;-89
2022/07/16 11:49:24;;;;;;;3.60;1.10;;;25.40;99.90;;;;;;5055518;28;20209;-90
2022/07/16 11:51:52;;;;;;;3.03;1.02;;;25.20;99.90;;;;;;5056653;28;20788;-90
2022/07/16 11:54:19;;;;;;;3.30;1.33;;;25.10;99.90;;;;;;5056579;28;20328;-90
2022/07/16 11:56:46;;;;;;;5.60;1.35;;;25.10;99.90;;;;;;5056787;28;20278;-89
2022/07/16 11:59:21;;;;;;;4.40;1.25;;;24.90;99.90;;;;;;5055628;28;20636;-87
2022/07/16 12:02:01;;;;;;;6.70;1.20;;;24.80;99.90;;;;;;5056172;28;20206;-90
2022/07/16 12:04:39;;;;;;;4.00;1.20;;;24.90;99.90;;;;;;5055471;28;20198;-84
2022/07/16 12:07:08;;;;;;;4.95;1.20;;;24.90;99.90;;;;;;5036272;28;20198;-86
2022/07/16 12:09:37;;;;;;;4.35;1.30;;;24.90;99.90;;;;;;5040780;28;20213;-88
2022/07/16 12:12:06;;;;;;;3.97;1.25;;;25.00;99.90;;;;;;5056888;28;20198;-90
2022/07/16 12:14:58;;;;;;;3.67;1.10;;;25.30;99.90;;;;;;5056452;28;20225;-90
2022/07/16 12:17:28;;;;;;;5.07;1.30;;;25.40;99.90;;;;;;5055470;28;20281;-90
2022/07/16 12:20:12;;;;;;;3.85;1.10;;;25.30;99.90;;;;;;5056225;28;20186;-90
2022/07/16 12:22:52;;;;;;;4.15;1.38;;;25.10;99.90;;;;;;5055883;28;20229;-92
2022/07/16 12:25:24;;;;;;;7.93;1.27;;;25.10;99.90;;;;;;5055966;28;20198;-88
2022/07/16 12:27:53;;;;;;;4.07;1.48;;;25.10;99.90;;;;;;5048976;28;20232;-90
2022/07/16 12:30:29;;;;;;;3.05;1.02;;;25.00;99.90;;;;;;5035587;28;20201;-91
2022/07/16 12:32:59;;;;;;;2.95;1.00;;;25.00;99.90;;;;;;5035333;28;20206;-90
2022/07/16 12:35:51;;;;;;;4.13;1.00;;;24.90;99.90;;;;;;5035445;28;20245;-91
2022/07/16 12:38:52;;;;;;;2.72;1.20;;;24.90;99.90;;;;;;5024066;28;20203;-87
2022/07/16 12:41:21;;;;;;;3.22;1.10;;;24.70;99.90;;;;;;5041553;28;20189;-84
2022/07/16 12:43:53;;;;;;;6.28;1.40;;;24.60;99.90;;;;;;5055455;28;20214;-87
2022/07/16 12:46:21;;;;;;;3.95;1.00;;;24.80;99.90;;;;;;5054973;28;20202;-86
2022/07/16 12:48:51;;;;;;;4.18;1.20;;;24.80;99.90;;;;;;5054108;28;20198;-87
2022/07/16 12:51:20;;;;;;;4.97;1.20;;;24.90;99.90;;;;;;5035690;28;20535;-87
2022/07/16 12:53:48;;;;;;;3.03;1.05;;;24.90;99.90;;;;;;5034665;28;20229;-91
2022/07/16 12:58:59;;;;;;;3.00;1.13;;;24.50;99.90;;;;;;5049621;28;20194;-88
2022/07/16 13:01:29;;;;;;;3.97;1.27;;;24.60;99.90;;;;;;5054235;28;20208;-87
2022/07/16 13:03:57;;;;;;;5.05;1.30;;;24.60;99.90;;;;;;5050963;28;20605;-87
2022/07/16 13:06:25;;;;;;;5.38;1.33;;;24.60;99.90;;;;;;5038514;28;20512;-85
2022/07/16 13:08:52;;;;;;;4.70;1.17;;;24.60;99.90;;;;;;5052983;28;20206;-86
2022/07/16 13:11:20;;;;;;;3.17;1.13;;;24.40;99.90;;;;;;5047280;28;20234;-89